createdAt,value
2017-11-17T00:01:13.704Z,98125.58
2017-11-17T00:03:41.215Z,98133.05
2017-11-17T00:06:09.139Z,98138.52
2017-11-17T00:08:36.689Z,98134.39
2017-11-17T00:11:04.249Z,98133.56
2017-11-17T00:13:31.958Z,98124.34
2017-11-17T00:15:59.483Z,98124.36
2017-11-17T00:18:27.014Z,98124.73
2017-11-17T00:20:54.791Z,98133.06
2017-11-17T00:23:22.353Z,98138.12
2017-11-17T00:25:49.864Z,98134.32
2017-11-17T00:28:17.571Z,98136.38
2017-11-17T00:30:45.139Z,98141.03
2017-11-17T00:33:12.689Z,98141.41
2017-11-17T00:35:40.469Z,98144.77
2017-11-17T00:38:07.995Z,98145.13
2017-11-17T00:40:35.510Z,98146.76
2017-11-17T00:43:03.070Z,98147.69
2017-11-17T00:45:30.587Z,98151.89
2017-11-17T00:47:58.100Z,98149.34
2017-11-17T00:50:25.644Z,98153.08
2017-11-17T00:52:53.155Z,98143.90
2017-11-17T00:55:20.667Z,98145.22
2017-11-17T00:57:48.215Z,98149.39
2017-11-17T01:00:15.737Z,98148.57
2017-11-17T01:02:43.295Z,98142.73
2017-11-17T01:05:10.958Z,98144.81
2017-11-17T01:07:38.517Z,98144.37
2017-11-17T01:10:06.051Z,98143.93
2017-11-17T01:12:33.845Z,98146.05
2017-11-17T01:15:01.355Z,98141.80
2017-11-17T01:17:28.872Z,98138.95
2017-11-17T01:19:56.517Z,98138.51
2017-11-17T01:22:24.077Z,98134.23
2017-11-17T01:24:51.596Z,98133.39
2017-11-17T01:27:19.397Z,98136.73
2017-11-17T01:29:46.959Z,98145.12
2017-11-17T01:32:14.467Z,98145.97
2017-11-17T01:34:42.503Z,98148.03
2017-11-17T01:37:10.044Z,98148.02
2017-11-17T01:39:37.565Z,98146.44
2017-11-17T01:42:05.367Z,98149.78
2017-11-17T01:44:32.926Z,98146.42
2017-11-17T01:47:00.492Z,98142.63
2017-11-17T01:49:28.351Z,98139.20
2017-11-17T01:51:55.859Z,98140.89
2017-11-17T01:54:23.386Z,98133.80
2017-11-17T01:56:51.219Z,98136.28
2017-11-17T01:59:18.788Z,98136.30
2017-11-17T02:01:46.388Z,98132.16
2017-11-17T02:04:14.014Z,98135.98
2017-11-17T02:06:41.532Z,98133.90
2017-11-17T02:09:09.047Z,98126.78
2017-11-17T02:11:37.000Z,98120.53
2017-11-17T02:14:04.557Z,98122.66
2017-11-17T02:16:32.117Z,98121.36
2017-11-17T02:18:59.881Z,98118.83
2017-11-17T02:21:27.391Z,98120.53
2017-11-17T02:23:54.907Z,98120.55
2017-11-17T02:26:22.659Z,98115.55
2017-11-17T02:28:50.219Z,98119.72
2017-11-17T02:31:17.735Z,98112.17
2017-11-17T02:33:45.438Z,98111.76
2017-11-17T02:36:13.003Z,98111.36
2017-11-17T02:38:40.532Z,98111.80
2017-11-17T02:41:08.320Z,98114.25
2017-11-17T02:43:35.867Z,98117.16
2017-11-17T02:46:03.391Z,98115.03
2017-11-17T02:48:31.310Z,98114.16
2017-11-17T02:50:58.864Z,98112.83
2017-11-17T02:53:26.422Z,98109.13
2017-11-17T02:55:54.186Z,98117.05
2017-11-17T02:58:21.746Z,98120.03
2017-11-17T03:00:49.304Z,98121.78
2017-11-17T03:03:17.256Z,98120.09
2017-11-17T03:05:44.834Z,98114.64
2017-11-17T03:08:12.393Z,98117.13
2017-11-17T03:10:40.087Z,98112.50
2017-11-17T03:13:07.612Z,98117.95
2017-11-17T03:15:35.119Z,98117.91
2017-11-17T03:18:02.833Z,98116.60
2017-11-17T03:20:30.343Z,98123.63
2017-11-17T03:22:57.859Z,98123.14
2017-11-17T03:25:25.435Z,98127.23
2017-11-17T03:27:52.952Z,98134.31
2017-11-17T03:30:20.529Z,98136.03
2017-11-17T03:32:48.097Z,98141.00
2017-11-17T03:35:15.644Z,98147.33
2017-11-17T03:37:43.159Z,98145.05
2017-11-17T03:40:10.843Z,98152.62
2017-11-17T03:42:38.362Z,98150.09
2017-11-17T03:45:05.879Z,98153.85
2017-11-17T03:47:33.643Z,98144.66
2017-11-17T03:50:01.161Z,98149.28
2017-11-17T03:52:28.679Z,98147.63
2017-11-17T03:54:56.224Z,98138.94
2017-11-17T03:57:23.779Z,98137.20
2017-11-17T03:59:51.338Z,98143.11
2017-11-17T04:02:19.077Z,98148.56
2017-11-17T04:04:46.590Z,98160.73
2017-11-17T04:07:14.199Z,98160.25
2017-11-17T04:09:41.859Z,98165.73
2017-11-17T04:12:09.379Z,98166.22
2017-11-17T04:14:36.896Z,98172.59
2017-11-17T04:17:04.558Z,98162.59
2017-11-17T04:19:32.076Z,98158.11
2017-11-17T04:21:59.591Z,98156.45
2017-11-17T04:24:27.160Z,98148.41
2017-11-17T04:26:54.690Z,98161.02
2017-11-17T04:29:22.203Z,98149.70
2017-11-17T04:31:49.912Z,98153.83
2017-11-17T04:34:17.598Z,98157.66
2017-11-17T04:36:45.132Z,98150.94
2017-11-17T04:39:12.780Z,98148.87
2017-11-17T04:41:40.295Z,98145.60
2017-11-17T04:44:07.808Z,98143.02
2017-11-17T04:46:35.375Z,98146.74
2017-11-17T04:49:02.926Z,98141.77
2017-11-17T04:51:30.439Z,98139.32
2017-11-17T04:53:58.072Z,98138.46
2017-11-17T04:56:25.604Z,98131.23
2017-11-17T04:58:53.187Z,98142.17
2017-11-17T05:01:20.927Z,98140.91
2017-11-17T05:03:48.491Z,98144.69
2017-11-17T05:06:16.013Z,98144.31
2017-11-17T05:08:43.707Z,98143.00
2017-11-17T05:11:11.268Z,98142.57
2017-11-17T05:13:38.824Z,98139.19
2017-11-17T05:16:06.366Z,98145.45
2017-11-17T05:18:33.888Z,98143.82
2017-11-17T05:21:01.403Z,98149.67
2017-11-17T05:23:29.165Z,98152.58
2017-11-17T05:25:56.722Z,98153.00
2017-11-17T05:28:24.282Z,98149.73
2017-11-17T05:30:52.044Z,98151.36
2017-11-17T05:33:19.605Z,98147.53
2017-11-17T05:35:47.115Z,98151.40
2017-11-17T05:38:14.927Z,98147.67
2017-11-17T05:40:42.434Z,98147.20
2017-11-17T05:43:09.946Z,98149.37
2017-11-17T05:45:37.608Z,98150.56
2017-11-17T05:48:05.168Z,98148.55
2017-11-17T05:50:32.729Z,98150.23
2017-11-17T05:53:00.692Z,98148.98
2017-11-17T05:55:28.557Z,98148.99
2017-11-17T05:57:56.073Z,98145.66
2017-11-17T06:00:23.880Z,98140.19
2017-11-17T06:02:51.441Z,98150.60
2017-11-17T06:05:19.040Z,98143.83
2017-11-17T06:07:46.761Z,98145.45
2017-11-17T06:10:14.278Z,98150.09
2017-11-17T06:12:41.795Z,98143.25
2017-11-17T06:15:09.339Z,98149.14
2017-11-17T06:17:36.864Z,98148.21
2017-11-17T06:20:04.378Z,98141.95
2017-11-17T06:22:32.096Z,98145.38
2017-11-17T06:24:59.612Z,98150.77
2017-11-17T06:27:27.128Z,98161.67
2017-11-17T06:29:54.895Z,98162.74
2017-11-17T06:32:22.456Z,98164.48
2017-11-17T06:34:49.977Z,98166.50
2017-11-17T06:37:18.319Z,98163.95
2017-11-17T06:39:45.959Z,98165.61
2017-11-17T06:42:13.480Z,98174.91
2017-11-17T06:44:41.185Z,98170.19
2017-11-17T06:47:08.730Z,98173.59
2017-11-17T06:49:36.244Z,98177.29
2017-11-17T06:52:03.800Z,98182.70
2017-11-17T06:54:31.319Z,98180.98
2017-11-17T06:56:59.182Z,98189.81
2017-11-17T06:59:27.119Z,98186.81
2017-11-17T07:01:54.643Z,98191.42
2017-11-17T07:04:22.167Z,98192.80
2017-11-17T07:06:49.736Z,98187.67
2017-11-17T07:09:17.275Z,98192.30
2017-11-17T07:11:44.835Z,98194.77
2017-11-17T07:14:12.570Z,98202.31
2017-11-17T07:16:40.092Z,98203.97
2017-11-17T07:19:07.606Z,98201.52
2017-11-17T07:21:35.416Z,98207.75
2017-11-17T07:24:02.936Z,98213.20
2017-11-17T07:26:30.509Z,98216.61
2017-11-17T07:28:58.361Z,98221.96
2017-11-17T07:31:25.992Z,98219.13
2017-11-17T07:33:53.515Z,98223.31
2017-11-17T07:36:21.232Z,98217.82
2017-11-17T07:38:48.822Z,98228.05
2017-11-17T07:41:16.362Z,98228.88
2017-11-17T07:43:44.230Z,98228.75
2017-11-17T07:46:11.788Z,98228.77
2017-11-17T07:48:39.370Z,98225.44
2017-11-17T07:51:06.931Z,98225.88
2017-11-17T07:53:34.464Z,98228.40
2017-11-17T07:56:02.031Z,98232.95
2017-11-17T07:58:29.685Z,98222.05
2017-11-17T08:00:57.199Z,98227.23
2017-11-17T08:03:24.721Z,98226.74
2017-11-17T08:05:52.376Z,98219.27
2017-11-17T08:08:19.887Z,98218.00
2017-11-17T08:10:47.406Z,98210.84
2017-11-17T08:13:15.120Z,98212.08
2017-11-17T08:15:42.636Z,98213.62
2017-11-17T08:18:22.037Z,98216.58
2017-11-17T08:20:49.597Z,98222.28
2017-11-17T08:23:17.120Z,98213.69
2017-11-17T08:25:44.714Z,98218.97
2017-11-17T08:28:12.274Z,98218.45
2017-11-17T08:30:39.835Z,98212.10
2017-11-17T08:33:07.599Z,98215.30
2017-11-17T08:35:35.119Z,98220.73
2017-11-17T08:38:02.640Z,98221.66
2017-11-17T08:40:30.204Z,98214.70
2017-11-17T08:42:57.735Z,98223.05
2017-11-17T08:45:25.291Z,98219.95
2017-11-17T08:47:53.053Z,98223.44
2017-11-17T08:50:20.626Z,98225.52
2017-11-17T08:52:48.156Z,98220.24
2017-11-17T08:55:15.935Z,98223.02
2017-11-17T08:57:43.516Z,98215.61
2017-11-17T09:00:11.053Z,98217.67
2017-11-17T09:02:38.670Z,98213.81
2017-11-17T09:05:06.190Z,98218.80
2017-11-17T09:07:33.712Z,98212.60
2017-11-17T09:10:01.292Z,98212.39
2017-11-17T09:12:28.804Z,98219.20
2017-11-17T09:14:56.409Z,98222.68
2017-11-17T09:17:23.972Z,98221.42
2017-11-17T09:19:51.500Z,98216.91
2017-11-17T09:22:19.024Z,98225.64
2017-11-17T09:24:46.720Z,98225.92
2017-11-17T09:27:14.236Z,98229.73
2017-11-17T09:29:41.764Z,98238.25
2017-11-17T09:32:09.532Z,98241.13
2017-11-17T09:34:37.086Z,98243.97
2017-11-17T09:37:04.645Z,98249.02
2017-11-17T09:39:32.410Z,98250.70
2017-11-17T09:41:59.970Z,98253.08
2017-11-17T09:44:27.509Z,98251.36
2017-11-17T09:46:55.188Z,98248.72
2017-11-17T09:49:23.112Z,98247.92
2017-11-17T09:51:50.818Z,98243.91
2017-11-17T09:54:18.387Z,98249.41
2017-11-17T09:56:45.937Z,98244.67
2017-11-17T09:59:14.417Z,98250.56
2017-11-17T10:01:42.079Z,98254.10
2017-11-17T10:04:09.591Z,98250.56
2017-11-17T10:06:37.110Z,98248.75
2017-11-17T10:09:04.839Z,98252.03
2017-11-17T10:11:32.424Z,98251.60
2017-11-17T10:13:59.945Z,98249.45
2017-11-17T10:16:27.538Z,98257.97
2017-11-17T10:18:55.112Z,98252.16
2017-11-17T10:21:22.655Z,98251.88
2017-11-17T10:23:50.406Z,98245.52
2017-11-17T10:26:17.932Z,98248.32
2017-11-17T10:28:45.452Z,98244.34
2017-11-17T10:31:13.027Z,98242.81
2017-11-17T10:33:40.543Z,98242.76
2017-11-17T10:36:08.113Z,98241.50
2017-11-17T10:38:35.876Z,98234.66
2017-11-17T10:41:03.391Z,98230.73
2017-11-17T10:43:31.302Z,98229.24
2017-11-17T10:45:58.939Z,98229.40
2017-11-17T10:48:26.466Z,98230.98
2017-11-17T10:50:53.988Z,98232.66
2017-11-17T10:53:21.741Z,98237.83
2017-11-17T10:55:52.170Z,98238.71
2017-11-17T10:58:19.729Z,98238.72
2017-11-17T11:00:47.287Z,98239.14
2017-11-17T11:03:14.801Z,98232.81
2017-11-17T11:05:42.335Z,98229.12
2017-11-17T11:08:10.065Z,98234.59
2017-11-17T11:10:38.355Z,98226.59
2017-11-17T11:13:05.901Z,98227.20
2017-11-17T11:15:33.664Z,98224.46
2017-11-17T11:18:01.187Z,98225.30
2017-11-17T11:20:28.698Z,98220.38
2017-11-17T11:22:56.283Z,98224.28
2017-11-17T11:25:23.803Z,98222.85
2017-11-17T11:27:51.358Z,98220.69
2017-11-17T11:30:19.429Z,98229.03
2017-11-17T11:32:47.035Z,98225.59
2017-11-17T11:35:14.650Z,98230.59
2017-11-17T11:37:42.418Z,98221.01
2017-11-17T11:40:09.972Z,98227.18
2017-11-17T11:42:37.501Z,98220.02
2017-11-17T11:45:05.175Z,98220.27
2017-11-17T11:47:32.701Z,98217.80
2017-11-17T11:50:00.224Z,98214.39
2017-11-17T11:52:28.074Z,98219.72
2017-11-17T11:54:55.633Z,98219.41
2017-11-17T11:57:23.200Z,98221.09
2017-11-17T11:59:50.772Z,98220.09
2017-11-17T12:02:18.311Z,98220.08
2017-11-17T12:04:45.869Z,98221.51
2017-11-17T12:07:13.445Z,98219.45
2017-11-17T12:09:40.968Z,98214.53
2017-11-17T12:12:08.958Z,98215.81
2017-11-17T12:14:36.568Z,98219.38
2017-11-17T12:17:04.121Z,98211.92
2017-11-17T12:19:31.839Z,98209.17
2017-11-17T12:22:00.114Z,98209.30
2017-11-17T12:24:27.720Z,98208.39
2017-11-17T12:26:55.453Z,98211.72
2017-11-17T12:29:23.283Z,98214.69
2017-11-17T12:31:50.864Z,98216.16
2017-11-17T12:34:18.446Z,98211.23
2017-11-17T12:36:46.596Z,98211.88
2017-11-17T12:39:14.360Z,98210.87
2017-11-17T12:41:41.912Z,98207.96
2017-11-17T12:44:09.504Z,98205.20
2017-11-17T12:46:37.959Z,98196.77
2017-11-17T12:49:05.621Z,98203.78
2017-11-17T12:51:33.417Z,98199.30
2017-11-17T12:54:01.690Z,98202.86
2017-11-17T12:56:29.239Z,98195.98
2017-11-17T12:58:56.890Z,98192.68
2017-11-17T13:01:24.469Z,98192.62
2017-11-17T13:03:52.086Z,98188.93
2017-11-17T13:06:19.968Z,98188.56
2017-11-17T13:08:48.069Z,98187.56
2017-11-17T13:11:15.804Z,98179.86
2017-11-17T13:13:43.829Z,98183.70
2017-11-17T13:16:11.433Z,98175.39
2017-11-17T13:18:39.304Z,98171.33
2017-11-17T13:21:07.272Z,98170.23
2017-11-17T13:23:35.339Z,98167.92
2017-11-17T13:26:03.102Z,98163.22
2017-11-17T13:28:31.074Z,98163.02
2017-11-17T13:30:58.952Z,98164.66
2017-11-17T13:33:26.700Z,98162.42
2017-11-17T13:35:54.694Z,98163.84
2017-11-17T13:38:22.853Z,98160.50
2017-11-17T13:40:50.710Z,98162.36
2017-11-17T13:43:19.076Z,98158.35
2017-11-17T13:45:46.955Z,98165.82
2017-11-17T13:48:14.843Z,98161.30
2017-11-17T13:50:42.848Z,98165.45
2017-11-17T13:53:10.626Z,98165.02
2017-11-17T13:55:38.318Z,98158.83
2017-11-17T13:58:06.393Z,98165.11
2017-11-17T14:00:33.955Z,98163.23
2017-11-17T14:03:01.564Z,98163.34
2017-11-17T14:05:29.577Z,98161.31
2017-11-17T14:07:57.119Z,98164.06
2017-11-17T14:10:24.721Z,98158.36
2017-11-17T14:12:53.211Z,98156.02
2017-11-17T14:15:20.735Z,98163.33
2017-11-17T14:17:48.314Z,98162.73
2017-11-17T14:20:16.282Z,98161.09
2017-11-17T14:22:43.811Z,98153.39
2017-11-17T14:25:11.688Z,98161.85
2017-11-17T14:27:39.424Z,98150.84
2017-11-17T14:30:07.231Z,98155.39
2017-11-17T14:32:34.924Z,98151.23
2017-11-17T14:35:02.742Z,98152.92
2017-11-17T14:37:30.263Z,98152.50
2017-11-17T14:39:57.807Z,98149.56
2017-11-17T14:42:25.751Z,98147.61
2017-11-17T14:44:53.307Z,98149.45
2017-11-17T14:47:21.169Z,98148.09
2017-11-17T14:49:49.122Z,98150.30
2017-11-17T14:52:16.873Z,98151.09
2017-11-17T14:54:44.714Z,98147.47
2017-11-17T14:57:12.615Z,98148.95
2017-11-17T14:59:40.216Z,98149.33
2017-11-17T15:02:07.990Z,98152.22
2017-11-17T15:04:36.626Z,98152.88
2017-11-17T15:07:04.493Z,98153.72
2017-11-17T15:09:32.129Z,98155.30
2017-11-17T15:12:00.124Z,98152.77
2017-11-17T15:14:27.924Z,98147.25
2017-11-17T15:16:55.855Z,98148.28
2017-11-17T15:19:23.699Z,98151.98
2017-11-17T15:21:51.405Z,98144.83
2017-11-17T15:24:19.147Z,98145.75
2017-11-17T15:26:46.925Z,98145.30
2017-11-17T15:29:14.676Z,98145.94
2017-11-17T15:31:42.456Z,98149.36
2017-11-17T15:34:10.930Z,98146.68
2017-11-17T15:36:38.794Z,98141.95
2017-11-17T15:39:06.669Z,98143.30
2017-11-17T15:41:35.031Z,98142.38
2017-11-17T15:44:03.102Z,98146.89
2017-11-17T15:46:31.071Z,98146.32
2017-11-17T15:48:59.206Z,98149.52
2017-11-17T15:51:27.109Z,98147.69
2017-11-17T15:53:54.886Z,98150.58
2017-11-17T15:56:23.991Z,98148.20
2017-11-17T15:58:53.370Z,98151.59
2017-11-17T16:01:21.157Z,98146.89
2017-11-17T16:03:49.922Z,98154.74
2017-11-17T16:06:17.687Z,98154.27
2017-11-17T16:08:45.656Z,98157.33
2017-11-17T16:11:13.624Z,98151.90
2017-11-17T16:13:41.408Z,98156.93
2017-11-17T16:16:09.561Z,98153.56
2017-11-17T16:18:37.632Z,98159.75
2017-11-17T16:21:05.513Z,98156.16
2017-11-17T16:23:33.250Z,98149.41
2017-11-17T16:26:01.539Z,98157.95
2017-11-17T16:28:29.721Z,98157.01
2017-11-17T16:30:57.701Z,98153.64
2017-11-17T16:33:25.649Z,98150.38
2017-11-17T16:35:53.477Z,98153.38
2017-11-17T16:38:21.292Z,98159.73
2017-11-17T16:40:49.271Z,98152.84
2017-11-17T16:43:17.012Z,98151.83
2017-11-17T16:45:46.384Z,98152.16
2017-11-17T16:48:14.387Z,98146.25
2017-11-17T16:50:42.659Z,98152.84
2017-11-17T16:53:10.427Z,98146.43
2017-11-17T16:55:38.393Z,98145.58
2017-11-17T16:58:06.573Z,98146.52
2017-11-17T17:00:34.961Z,98139.69
2017-11-17T17:03:03.038Z,98139.59
2017-11-17T17:05:31.251Z,98138.38
2017-11-17T17:07:59.171Z,98143.05
2017-11-17T17:10:27.511Z,98144.41
2017-11-17T17:12:55.300Z,98137.76
2017-11-17T17:15:23.064Z,98141.13
2017-11-17T17:17:50.957Z,98146.09
2017-11-17T17:20:18.679Z,98147.97
2017-11-17T17:22:46.560Z,98150.30
2017-11-17T17:25:14.531Z,98148.37
2017-11-17T17:27:42.202Z,98151.80
2017-11-17T17:30:10.364Z,98149.19
2017-11-17T17:32:38.640Z,98152.73
2017-11-17T17:35:06.513Z,98150.08
2017-11-17T17:37:34.372Z,98151.56
2017-11-17T17:40:03.071Z,98150.96
2017-11-17T17:42:30.853Z,98144.27
2017-11-17T17:44:58.600Z,98146.77
2017-11-17T17:47:26.317Z,98143.70
2017-11-17T17:49:54.084Z,98146.05
2017-11-17T17:52:21.770Z,98144.13
2017-11-17T17:54:49.949Z,98139.25
2017-11-17T17:57:17.936Z,98143.80
2017-11-17T17:59:45.785Z,98154.69
2017-11-17T18:02:14.908Z,98159.09
2017-11-17T18:04:42.746Z,98156.95
2017-11-17T18:07:10.816Z,98150.86
2017-11-17T18:09:39.095Z,98149.34
2017-11-17T18:12:07.485Z,98150.98
2017-11-17T18:14:36.946Z,98153.09
2017-11-17T18:17:05.389Z,98157.50
2017-11-17T18:19:33.631Z,98153.20
2017-11-17T18:22:01.805Z,98152.67
2017-11-17T18:24:30.105Z,98148.46
2017-11-17T18:26:58.828Z,98150.98
2017-11-17T18:29:26.739Z,98154.86
2017-11-17T18:31:55.523Z,98151.84
2017-11-17T18:34:23.900Z,98156.87
2017-11-17T18:36:52.833Z,98151.27
2017-11-17T18:39:22.521Z,98147.08
2017-11-17T18:41:50.469Z,98146.45
2017-11-17T18:44:18.338Z,98144.87
2017-11-17T18:46:46.509Z,98141.36
2017-11-17T18:49:14.335Z,98146.27
2017-11-17T18:51:42.177Z,98142.23
2017-11-17T18:54:10.417Z,98139.30
2017-11-17T18:56:39.304Z,98147.03
2017-11-17T18:59:07.460Z,98143.15
2017-11-17T19:01:35.755Z,98137.11
2017-11-17T19:04:03.650Z,98133.56
2017-11-17T19:06:31.795Z,98133.47
2017-11-17T19:09:00.684Z,98138.42
2017-11-17T19:11:28.568Z,98142.02
2017-11-17T19:13:56.417Z,98140.75
2017-11-17T19:16:24.491Z,98143.23
2017-11-17T19:18:52.273Z,98147.35
2017-11-17T19:21:20.222Z,98138.69
2017-11-17T19:23:48.189Z,98139.47
2017-11-17T19:26:15.976Z,98137.79
2017-11-17T19:28:43.821Z,98138.16
2017-11-17T19:31:11.804Z,98139.75
2017-11-17T19:33:39.930Z,98138.69
2017-11-17T19:36:09.748Z,98135.88
2017-11-17T19:38:37.863Z,98129.30
2017-11-17T19:41:05.704Z,98124.88
2017-11-17T19:43:33.607Z,98133.72
2017-11-17T19:46:01.959Z,98133.73
2017-11-17T19:48:30.546Z,98125.25
2017-11-17T19:50:58.405Z,98126.14
2017-11-17T19:53:26.580Z,98124.08
2017-11-17T19:55:54.546Z,98127.41
2017-11-17T19:58:22.352Z,98124.09
2017-11-17T20:00:50.503Z,98120.49
2017-11-17T20:03:18.250Z,98120.87
2017-11-17T20:05:46.116Z,98120.91
2017-11-17T20:08:14.085Z,98113.59
2017-11-17T20:10:42.069Z,98110.69
2017-11-17T20:13:10.072Z,98104.33
2017-11-17T20:15:37.887Z,98115.79
2017-11-17T20:18:06.266Z,98115.23
2017-11-17T20:20:34.078Z,98115.54
2017-11-17T20:23:02.146Z,98118.40
2017-11-17T20:25:30.070Z,98116.48
2017-11-17T20:27:58.345Z,98117.55
2017-11-17T20:30:26.929Z,98120.86
2017-11-17T20:32:54.922Z,98116.91
2017-11-17T20:35:22.766Z,98118.48
2017-11-17T20:37:51.140Z,98119.33
2017-11-17T20:40:19.040Z,98120.55
2017-11-17T20:42:46.774Z,98126.83
2017-11-17T20:45:15.138Z,98122.52
2017-11-17T20:47:42.932Z,98122.23
2017-11-17T20:50:11.717Z,98110.39
2017-11-17T20:52:39.671Z,98106.92
2017-11-17T20:55:07.230Z,98108.41
2017-11-17T20:57:34.891Z,98105.03
2017-11-17T21:00:02.861Z,98105.08
2017-11-17T21:02:31.034Z,98100.88
2017-11-17T21:04:58.681Z,98100.40
2017-11-17T21:07:26.476Z,98108.03
2017-11-17T21:09:54.841Z,98104.09
2017-11-17T21:12:22.499Z,98108.03
2017-11-17T21:14:50.468Z,98105.03
2017-11-17T21:17:18.140Z,98103.67
2017-11-17T21:19:45.880Z,98103.33
2017-11-17T21:22:13.862Z,98105.22
2017-11-17T21:24:42.445Z,98109.47
2017-11-17T21:27:10.416Z,98104.73
2017-11-17T21:29:38.464Z,98103.70
2017-11-17T21:32:06.147Z,98107.70
2017-11-17T21:34:33.760Z,98096.75
2017-11-17T21:37:01.688Z,98098.81
2017-11-17T21:39:29.330Z,98099.23
2017-11-17T21:41:57.114Z,98106.72
2017-11-17T21:44:24.968Z,98111.86
2017-11-17T21:46:52.627Z,98110.45
2017-11-17T21:49:20.218Z,98094.97
2017-11-17T21:51:48.164Z,98099.81
2017-11-17T21:54:15.860Z,98101.51
2017-11-17T21:56:43.683Z,98093.83
2017-11-17T21:59:11.758Z,98098.77
2017-11-17T22:01:39.422Z,98092.78
2017-11-17T22:04:07.192Z,98090.67
2017-11-17T22:06:35.354Z,98091.66
2017-11-17T22:09:03.116Z,98092.36
2017-11-17T22:11:30.986Z,98091.14
2017-11-17T22:13:58.853Z,98090.66
2017-11-17T22:16:27.134Z,98092.20
2017-11-17T22:18:54.890Z,98083.23
2017-11-17T22:21:23.175Z,98083.09
2017-11-17T22:23:50.829Z,98084.28
2017-11-17T22:26:18.600Z,98085.83
2017-11-17T22:28:46.517Z,98089.03
2017-11-17T22:31:14.786Z,98090.66
2017-11-17T22:33:42.427Z,98088.98
2017-11-17T22:36:10.171Z,98091.14
2017-11-17T22:38:37.821Z,98097.51
2017-11-17T22:41:06.508Z,98103.87
2017-11-17T22:43:34.278Z,98104.30
2017-11-17T22:46:02.060Z,98094.23
2017-11-17T22:48:29.798Z,98088.11
2017-11-17T22:50:57.817Z,98088.13
2017-11-17T22:53:25.737Z,98089.66
2017-11-17T22:55:53.369Z,98086.34
2017-11-17T22:58:21.377Z,98085.25
2017-11-17T23:00:49.048Z,98080.92
2017-11-17T23:03:16.759Z,98078.83
2017-11-17T23:05:44.452Z,98072.55
2017-11-17T23:08:12.046Z,98068.92
2017-11-17T23:10:39.605Z,98071.02
2017-11-17T23:13:07.539Z,98067.34
2017-11-17T23:15:35.308Z,98052.99
2017-11-17T23:18:02.847Z,98045.73
2017-11-17T23:20:30.482Z,98041.23
2017-11-17T23:22:58.084Z,98044.00
2017-11-17T23:25:25.607Z,98033.23
2017-11-17T23:27:53.201Z,98029.25
2017-11-17T23:30:20.760Z,98028.03
2017-11-17T23:32:48.319Z,98028.80
2017-11-17T23:35:15.971Z,98025.27
2017-11-17T23:37:43.530Z,98029.17
2017-11-17T23:40:11.166Z,98021.27
2017-11-17T23:42:39.885Z,98013.02
2017-11-17T23:45:07.408Z,98015.66
2017-11-17T23:47:34.930Z,98016.01
2017-11-17T23:50:02.487Z,98012.51
2017-11-17T23:52:30.041Z,98022.80
2017-11-17T23:54:57.587Z,98019.76
2017-11-17T23:57:25.342Z,98020.61
2017-11-17T23:59:52.892Z,98019.38
